Getzville 2E NY

43° 01' 25"N, 78° 44' 55"W, Elevation 589 ft.
Eastern Time

Hourly observations for the last 72 hours

Date Time Temperature (°F) Humi-
dity

(%)
Wind
(mph)
Pressure Rain (in) Sun
(W/m2)
ET
(in)
Air Dew 6 Hour 1 Hr 3 Hr 6 Hr Day
Alt
(in)
Sea
Level

(mb)
Max Min
19 09:00 25.7 23.2 90 WSW 5 G 13 29.83 1010.2 0.09 25 0.005
19 08:00 27.5 24.4 88 WSW 4 G 15 29.80 1009.3 0.09 0 0.005
19 07:00 29.7 25.2 33.4 29.7 83 W 9 G 24 29.76 1007.9 0.01 0.04 0.08 0.09 0 0.004
19 06:00 31.0 27.0 85 W 5 G 15 29.72 1006.4 0.01 0.08 0 0.003
19 05:00 31.6 27.6 85 W 9 G 22 29.69 1005.5 0.02 0.07 0 0.002
19 04:00 32.1 27.8 84 WNW 11 G 21 29.67 1004.7 0.01 0.04 0.05 0 0.001
19 03:00 32.8 28.8 85 W 6 G 20 29.65 1004.2 0.02 0.04 0 0.000
19 02:00 33.2 29.5 86 W 4 G 24 29.62 1003.2 0.01 0.02 0 0.000
19 01:00 33.3 30.7 38.6 33.0 90 W 6 G 17 29.61 1002.7 0.01 0.03 0.04 0.01 0 0.000
19 00:00 34.4 31.2 88 WSW 9 G 20 29.61 1002.7 0.01 0.03 0 0.012
18 23:00 35.0 31.5 87 WSW 6 G 18 29.60 1002.5 0.01 0.02 0 0.011
18 22:00 35.9 32.7 88 W 8 G 23 29.60 1002.3 0.01 0.01 0.01 0 0.010
18 21:00 36.6 33.7 89 W 9 G 30 29.58 1001.7 0.00 0 0.009
18 20:00 38.5 36.1 91 WSW 8 G 20 29.56 1001.0 0.00 0 0.009
18 19:00 36.4 34.3 36.4 26.8 92 SW 6 G 11 29.56 1001.0 0.00 0 0.009
18 18:00 34.7 32.9 93 SW 7 G 12 29.57 1001.3 0.00 0 0.009
18 17:00 31.7 29.9 93 SW 1 G 4 29.63 1003.3 0.00 0 0.009
18 16:00 29.2 27.2 92 SE 0 G 2 29.68 1005.2 0.00 5 0.009
18 15:00 28.1 25.8 91 S 2 G 4 29.76 1007.9 0.00 19 0.009
18 14:00 27.2 24.9 91 SE 1 G 3 29.82 1009.8 0.00 21 0.009
18 13:00 26.9 24.4 27.3 20.2 90 SSE 1 G 5 29.91 1012.8 0.00 37 0.008
18 12:00 27.1 24.3 89 S 2 G 5 30.00 1015.8 0.00 56 0.007
18 11:00 25.1 22.0 88 ESE 2 G 7 30.08 1018.8 0.00 37 0.006
18 10:00 24.8 19.8 81 SE 2 G 7 30.15 1021.1 0.00 58 0.005
18 09:00 24.0 15.3 69 E 3 G 5 30.20 1022.7 0.00 32 0.004
18 08:00 22.1 14.1 71 ESE 3 G 8 30.26 1024.9 0.00 5 0.004
18 07:00 20.2 12.9 20.2 15.2 73 E 4 G 8 30.31 1026.5 0.00 0 0.003
18 06:00 19.0 11.5 72 ESE 5 G 11 30.38 1028.9 0.00 0 0.002
18 05:00 18.1 11.2 74 SE 2 G 11 30.47 1031.7 0.00 0 0.001
18 04:00 17.0 10.4 75 E 5 G 11 30.53 1034.0 0.00 0 0.000
18 03:00 16.2 9.7 75 E 4 G 10 30.61 1036.5 0.00 0 0.000
18 02:00 15.7 9.5 76 E 6 G 8 30.64 1037.6 0.00 0 0.000
18 01:00 15.3 9.1 15.3 14.1 76 E 3 G 8 30.67 1038.5 0.00 0 0.000
18 00:00 15.0 8.8 76 E 3 G 8 30.71 1040.1 0.00 0 0.021
17 23:00 14.7 9.1 78 SE 3 G 9 30.73 1040.7 0.00 0 0.021
17 22:00 14.3 9.0 79 E 3 G 6 30.75 1041.4 0.00 0 0.021
17 21:00 14.2 8.9 79 E 2 G 7 30.76 1041.7 0.00 0 0.021
17 20:00 15.0 8.8 76 ENE 2 G 5 30.78 1042.4 0.00 0 0.021
17 19:00 15.3 8.2 19.6 15.3 73 ENE 0 G 2 30.78 1042.5 0.00 0 0.021
17 18:00 16.0 7.9 70 E 1 G 2 30.79 1042.8 0.00 0 0.021
17 17:00 16.9 7.8 67 E 0 G 1 30.80 1043.0 0.00 7 0.021
17 16:00 17.5 8.4 67 ENE 2 G 2 30.80 1042.9 0.00 67 0.020
17 15:00 17.5 8.1 66 E 1 G 8 30.81 1043.2 0.00 97 0.018
17 14:00 18.3 9.5 68 ENE 2 G 4 30.82 1043.8 0.00 141 0.014
17 13:00 16.6 8.2 17.9 12.3 69 ENE 2 G 8 30.84 1044.5 0.00 274 0.010
17 12:00 15.6 8.2 72 ENE 4 G 9 30.87 1045.5 0.00 320 0.007
17 11:00 15.9 9.4 75 NNE 3 G 7 30.90 1046.6 0.00 573 0.005
17 10:00 13.3 6.9 75 N 4 G 7 30.90 1046.3 0.00 77 0.004
17 09:00 12.5 6.7 77 NNW 2 G 10 30.88 1045.9 0.00 91 0.003
17 08:00 12.8 7.0 77 N 3 G 10 30.87 1045.5 0.00 14 0.003
17 07:00 13.3 7.7 17.3 13.1 78 NNW 5 G 8 30.85 1044.8 0.00 0 0.003
17 06:00 13.5 7.1 75 N 5 G 10 30.81 1043.5 0.00 0 0.003
17 05:00 14.2 7.7 75 N 4 G 8 30.78 1042.3 0.00 0 0.003
17 04:00 14.1 7.6 75 NNW 5 G 10 30.75 1041.5 0.00 0 0.003
17 03:00 14.9 8.1 74 N 4 G 12 30.73 1040.8 0.00 0 0.002
17 02:00 15.8 8.7 73 N 5 G 17 30.69 1039.4 0.00 0 0.001
17 01:00 17.3 10.1 26.1 17.3 73 N 6 G 14 30.65 1038.1 0.00 0 0.000
17 00:00 19.1 11.9 73 N 5 G 11 30.61 1036.7 0.04 0 0.020
16 23:00 20.6 13.0 72 N 7 G 14 30.57 1035.2 0.03 0 0.019
16 22:00 22.0 15.3 75 N 4 G 16 30.53 1034.0 0.03 0 0.018
16 21:00 24.6 16.2 70 NNW 5 G 14 30.49 1032.6 0.03 0 0.017
16 20:00 25.2 18.1 74 NNW 5 G 11 30.46 1031.4 0.03 0 0.016
16 19:00 26.1 18.3 33.7 26.1 72 NW 7 G 15 30.41 1030.0 0.01 0.03 0 0.015
16 18:00 27.1 18.9 71 NNW 8 G 16 30.36 1028.1 0.03 0 0.014
16 17:00 28.6 20.7 72 NNW 9 G 18 30.32 1026.7 0.03 5 0.013
16 16:00 30.9 25.8 81 NNW 6 G 15 30.26 1024.7 0.01 0.03 33 0.012
16 15:00 30.7 26.4 84 NW 7 G 14 30.21 1023.0 0.03 70 0.011
16 14:00 33.4 27.0 77 WNW 9 G 16 30.18 1022.0 0.01 0.03 100 0.009
16 13:00 33.3 26.9 34.9 31.6 77 WNW 9 G 18 30.17 1021.7 0.01 0.01 0.01 0.02 121 0.006
16 12:00 31.8 28.1 86 WNW 3 G 13 30.18 1021.9 0.01 60 0.005
16 11:00 33.2 28.3 82 WNW 6 G 16 30.17 1021.6 0.01 19 0.003
16 10:00 32.8 28.2 83 WNW 6 G 16 30.15 1020.9 0.01 65 0.002

Data generated by WxSolution Version 1.9.1.5, Build 2018.05.20.